sensor_id;sensor_type;location;lat;lon;timestamp;temperature;humidity
14769;DHT22;7476;49.404;11.152;2023-02-13T00:00:34;-0.20;99.90
14769;DHT22;7476;49.404;11.152;2023-02-13T00:03:01;-0.10;99.90
14769;DHT22;7476;49.404;11.152;2023-02-13T00:05:28;-0.20;99.90
14769;DHT22;7476;49.404;11.152;2023-02-13T00:07:55;-0.20;99.90
14769;DHT22;7476;49.404;11.152;2023-02-13T00:10:23;-0.20;99.90
14769;DHT22;7476;49.404;11.152;2023-02-13T00:12:49;-0.20;99.90
14769;DHT22;7476;49.404;11.152;2023-02-13T00:15:16;-0.20;99.90
14769;DHT22;7476;49.404;11.152;2023-02-13T00:17:43;-0.30;99.90
14769;DHT22;7476;49.404;11.152;2023-02-13T00:20:11;-0.50;99.90
14769;DHT22;7476;49.404;11.152;2023-02-13T00:22:38;-0.70;99.90
14769;DHT22;7476;49.404;11.152;2023-02-13T00:25:06;-0.50;99.90
14769;DHT22;7476;49.404;11.152;2023-02-13T00:27:34;0.10;99.90
14769;DHT22;7476;49.404;11.152;2023-02-13T00:30:01;-0.10;99.90
14769;DHT22;7476;49.404;11.152;2023-02-13T00:32:28;-0.30;99.90
14769;DHT22;7476;49.404;11.152;2023-02-13T00:34:56;-0.50;99.90
14769;DHT22;7476;49.404;11.152;2023-02-13T00:37:22;-0.60;99.90
14769;DHT22;7476;49.404;11.152;2023-02-13T00:39:49;-0.60;99.90
14769;DHT22;7476;49.404;11.152;2023-02-13T00:42:16;-0.60;99.90
14769;DHT22;7476;49.404;11.152;2023-02-13T00:44:44;-0.40;99.90
14769;DHT22;7476;49.404;11.152;2023-02-13T00:47:10;-0.50;99.90
14769;DHT22;7476;49.404;11.152;2023-02-13T00:49:39;-0.60;99.90
14769;DHT22;7476;49.404;11.152;2023-02-13T00:52:06;-0.90;99.90
14769;DHT22;7476;49.404;11.152;2023-02-13T00:54:32;-1.00;99.90
14769;DHT22;7476;49.404;11.152;2023-02-13T00:56:59;-1.10;99.90
14769;DHT22;7476;49.404;11.152;2023-02-13T00:59:26;-1.10;99.90
14769;DHT22;7476;49.404;11.152;2023-02-13T01:01:54;-1.00;99.90
14769;DHT22;7476;49.404;11.152;2023-02-13T01:04:20;-1.00;99.90
14769;DHT22;7476;49.404;11.152;2023-02-13T01:06:47;-1.10;99.90
14769;DHT22;7476;49.404;11.152;2023-02-13T01:09:14;-1.10;99.90
14769;DHT22;7476;49.404;11.152;2023-02-13T01:11:40;-1.20;99.90
14769;DHT22;7476;49.404;11.152;2023-02-13T01:14:07;-1.40;99.90
14769;DHT22;7476;49.404;11.152;2023-02-13T01:16:34;-1.50;99.90
14769;DHT22;7476;49.404;11.152;2023-02-13T01:19:03;-1.10;99.90
14769;DHT22;7476;49.404;11.152;2023-02-13T01:21:30;-1.10;99.90
14769;DHT22;7476;49.404;11.152;2023-02-13T01:23:56;-1.30;99.90
14769;DHT22;7476;49.404;11.152;2023-02-13T01:26:23;-1.40;99.90
14769;DHT22;7476;49.404;11.152;2023-02-13T01:28:52;-1.50;99.90
14769;DHT22;7476;49.404;11.152;2023-02-13T01:31:19;-1.60;99.90
14769;DHT22;7476;49.404;11.152;2023-02-13T01:33:46;-1.70;99.90
14769;DHT22;7476;49.404;11.152;2023-02-13T01:36:15;-1.70;99.90
14769;DHT22;7476;49.404;11.152;2023-02-13T01:38:41;-1.70;99.90
14769;DHT22;7476;49.404;11.152;2023-02-13T01:41:09;-1.90;99.90
14769;DHT22;7476;49.404;11.152;2023-02-13T01:43:44;-1.80;99.90
14769;DHT22;7476;49.404;11.152;2023-02-13T01:46:12;-1.90;99.90
14769;DHT22;7476;49.404;11.152;2023-02-13T01:48:41;-2.00;99.90
14769;DHT22;7476;49.404;11.152;2023-02-13T01:51:13;-1.50;99.90
14769;DHT22;7476;49.404;11.152;2023-02-13T01:53:44;-1.40;99.90
14769;DHT22;7476;49.404;11.152;2023-02-13T01:56:15;-1.60;99.90
14769;DHT22;7476;49.404;11.152;2023-02-13T01:58:45;-1.90;99.90
14769;DHT22;7476;49.404;11.152;2023-02-13T02:01:14;-2.10;99.90
14769;DHT22;7476;49.404;11.152;2023-02-13T02:03:43;-2.20;99.90
14769;DHT22;7476;49.404;11.152;2023-02-13T02:06:16;-2.40;99.90
14769;DHT22;7476;49.404;11.152;2023-02-13T02:08:45;-2.50;99.90
14769;DHT22;7476;49.404;11.152;2023-02-13T02:11:19;-2.50;99.90
14769;DHT22;7476;49.404;11.152;2023-02-13T02:13:47;-2.20;99.90
14769;DHT22;7476;49.404;11.152;2023-02-13T02:16:14;-2.00;99.90
14769;DHT22;7476;49.404;11.152;2023-02-13T02:18:41;-1.90;99.90
14769;DHT22;7476;49.404;11.152;2023-02-13T02:21:30;-1.70;99.90
14769;DHT22;7476;49.404;11.152;2023-02-13T02:24:25;-1.80;99.90
14769;DHT22;7476;49.404;11.152;2023-02-13T02:27:07;-1.80;99.90
14769;DHT22;7476;49.404;11.152;2023-02-13T02:30:09;-2.00;99.90
14769;DHT22;7476;49.404;11.152;2023-02-13T02:32:59;-2.20;99.90
14769;DHT22;7476;49.404;11.152;2023-02-13T02:35:33;-2.30;99.90
14769;DHT22;7476;49.404;11.152;2023-02-13T02:38:15;-2.30;99.90
14769;DHT22;7476;49.404;11.152;2023-02-13T02:40:51;-2.20;99.90
14769;DHT22;7476;49.404;11.152;2023-02-13T02:43:30;-2.10;99.90
14769;DHT22;7476;49.404;11.152;2023-02-13T02:46:05;-2.20;99.90
14769;DHT22;7476;49.404;11.152;2023-02-13T02:48:43;-2.40;99.90
14769;DHT22;7476;49.404;11.152;2023-02-13T02:51:38;-2.50;99.90
14769;DHT22;7476;49.404;11.152;2023-02-13T02:54:09;-2.50;99.90
14769;DHT22;7476;49.404;11.152;2023-02-13T02:56:56;-2.50;99.90
14769;DHT22;7476;49.404;11.152;2023-02-13T02:59:26;-2.50;99.90
14769;DHT22;7476;49.404;11.152;2023-02-13T03:02:11;-2.60;99.90
14769;DHT22;7476;49.404;11.152;2023-02-13T03:04:58;-2.60;99.90
14769;DHT22;7476;49.404;11.152;2023-02-13T03:07:43;-2.60;99.90
14769;DHT22;7476;49.404;11.152;2023-02-13T03:10:12;-2.70;99.90
14769;DHT22;7476;49.404;11.152;2023-02-13T03:13:01;-2.60;99.90
14769;DHT22;7476;49.404;11.152;2023-02-13T03:15:48;-2.50;99.90
14769;DHT22;7476;49.404;11.152;2023-02-13T03:18:36;-2.70;99.90
14769;DHT22;7476;49.404;11.152;2023-02-13T03:21:33;-2.80;99.90
14769;DHT22;7476;49.404;11.152;2023-02-13T03:24:26;-2.80;99.90
14769;DHT22;7476;49.404;11.152;2023-02-13T03:26:58;-2.90;99.90
14769;DHT22;7476;49.404;11.152;2023-02-13T03:29:39;-2.90;99.90
14769;DHT22;7476;49.404;11.152;2023-02-13T03:32:33;-3.00;99.90
14769;DHT22;7476;49.404;11.152;2023-02-13T03:35:12;-3.10;99.90
14769;DHT22;7476;49.404;11.152;2023-02-13T03:38:04;-3.20;99.90
14769;DHT22;7476;49.404;11.152;2023-02-13T03:40:36;-3.20;99.90
14769;DHT22;7476;49.404;11.152;2023-02-13T03:43:29;-3.20;99.90
14769;DHT22;7476;49.404;11.152;2023-02-13T03:45:59;-3.20;99.90
14769;DHT22;7476;49.404;11.152;2023-02-13T03:48:30;-3.10;99.90
14769;DHT22;7476;49.404;11.152;2023-02-13T03:51:18;-3.10;99.90
14769;DHT22;7476;49.404;11.152;2023-02-13T03:53:51;-3.10;99.90
14769;DHT22;7476;49.404;11.152;2023-02-13T03:56:21;-3.20;99.90
14769;DHT22;7476;49.404;11.152;2023-02-13T03:59:08;-3.20;99.90
14769;DHT22;7476;49.404;11.152;2023-02-13T04:01:47;-3.20;99.90
14769;DHT22;7476;49.404;11.152;2023-02-13T04:04:21;-3.20;99.90
14769;DHT22;7476;49.404;11.152;2023-02-13T04:06:54;-3.10;99.90
14769;DHT22;7476;49.404;11.152;2023-02-13T04:09:24;-3.00;99.90
14769;DHT22;7476;49.404;11.152;2023-02-13T04:11:57;-3.20;99.90
14769;DHT22;7476;49.404;11.152;2023-02-13T04:14:30;-3.30;99.90
14769;DHT22;7476;49.404;11.152;2023-02-13T04:17:03;-3.40;99.90
14769;DHT22;7476;49.404;11.152;2023-02-13T04:19:31;-3.30;99.90
14769;DHT22;7476;49.404;11.152;2023-02-13T04:22:00;-3.40;99.90
14769;DHT22;7476;49.404;11.152;2023-02-13T04:24:29;-3.40;99.90
14769;DHT22;7476;49.404;11.152;2023-02-13T04:26:56;-3.30;99.90
14769;DHT22;7476;49.404;11.152;2023-02-13T04:29:24;-3.40;99.90
14769;DHT22;7476;49.404;11.152;2023-02-13T04:31:51;-3.40;99.90
14769;DHT22;7476;49.404;11.152;2023-02-13T04:34:18;-3.40;99.90
14769;DHT22;7476;49.404;11.152;2023-02-13T04:36:45;-3.40;99.90
14769;DHT22;7476;49.404;11.152;2023-02-13T04:39:11;-3.00;99.90
14769;DHT22;7476;49.404;11.152;2023-02-13T04:41:40;-2.80;99.90
14769;DHT22;7476;49.404;11.152;2023-02-13T04:44:06;-2.80;99.90
14769;DHT22;7476;49.404;11.152;2023-02-13T04:46:33;-3.00;99.90
14769;DHT22;7476;49.404;11.152;2023-02-13T04:49:00;-3.10;99.90
14769;DHT22;7476;49.404;11.152;2023-02-13T04:51:27;-3.20;99.90
14769;DHT22;7476;49.404;11.152;2023-02-13T04:53:53;-3.40;99.90
14769;DHT22;7476;49.404;11.152;2023-02-13T04:56:20;-3.40;99.90
14769;DHT22;7476;49.404;11.152;2023-02-13T04:58:48;-3.50;99.90
14769;DHT22;7476;49.404;11.152;2023-02-13T05:01:15;-3.60;99.90
14769;DHT22;7476;49.404;11.152;2023-02-13T05:03:42;-3.70;99.90
14769;DHT22;7476;49.404;11.152;2023-02-13T05:06:09;-3.60;99.90
14769;DHT22;7476;49.404;11.152;2023-02-13T05:08:36;-3.30;99.90
14769;DHT22;7476;49.404;11.152;2023-02-13T05:11:02;-2.90;99.90
14769;DHT22;7476;49.404;11.152;2023-02-13T05:13:29;-3.10;99.90
14769;DHT22;7476;49.404;11.152;2023-02-13T05:15:58;-3.30;99.90
14769;DHT22;7476;49.404;11.152;2023-02-13T05:18:24;-3.30;99.90
14769;DHT22;7476;49.404;11.152;2023-02-13T05:20:51;-3.20;99.90
14769;DHT22;7476;49.404;11.152;2023-02-13T05:23:32;-3.40;99.90
14769;DHT22;7476;49.404;11.152;2023-02-13T05:25:58;-3.50;99.90
14769;DHT22;7476;49.404;11.152;2023-02-13T05:28:25;-3.60;99.90
14769;DHT22;7476;49.404;11.152;2023-02-13T05:31:11;-3.60;99.90
14769;DHT22;7476;49.404;11.152;2023-02-13T05:33:37;-3.60;99.90
14769;DHT22;7476;49.404;11.152;2023-02-13T05:36:05;-3.60;99.90
14769;DHT22;7476;49.404;11.152;2023-02-13T05:38:32;-3.50;99.90
14769;DHT22;7476;49.404;11.152;2023-02-13T05:40:58;-3.40;99.90
14769;DHT22;7476;49.404;11.152;2023-02-13T05:43:25;-3.30;99.90
14769;DHT22;7476;49.404;11.152;2023-02-13T05:46:00;-3.30;99.90
14769;DHT22;7476;49.404;11.152;2023-02-13T05:48:28;-3.20;99.90
14769;DHT22;7476;49.404;11.152;2023-02-13T05:50:55;-3.20;99.90
14769;DHT22;7476;49.404;11.152;2023-02-13T05:53:22;-3.10;99.90
14769;DHT22;7476;49.404;11.152;2023-02-13T05:55:49;-3.10;99.90
14769;DHT22;7476;49.404;11.152;2023-02-13T05:58:16;-3.00;99.90
14769;DHT22;7476;49.404;11.152;2023-02-13T06:00:43;-2.90;99.90
14769;DHT22;7476;49.404;11.152;2023-02-13T06:03:10;-2.80;99.90
14769;DHT22;7476;49.404;11.152;2023-02-13T06:05:38;-2.70;99.90
14769;DHT22;7476;49.404;11.152;2023-02-13T06:08:05;-2.60;99.90
14769;DHT22;7476;49.404;11.152;2023-02-13T06:10:32;-2.60;99.90
14769;DHT22;7476;49.404;11.152;2023-02-13T06:12:59;-2.50;99.90
14769;DHT22;7476;49.404;11.152;2023-02-13T06:15:25;-2.40;99.90
14769;DHT22;7476;49.404;11.152;2023-02-13T06:17:52;-2.30;99.90
14769;DHT22;7476;49.404;11.152;2023-02-13T06:20:19;-2.20;99.90
14769;DHT22;7476;49.404;11.152;2023-02-13T06:22:48;-2.10;99.90
14769;DHT22;7476;49.404;11.152;2023-02-13T06:25:15;-2.10;99.90
14769;DHT22;7476;49.404;11.152;2023-02-13T06:27:42;-2.10;99.90
14769;DHT22;7476;49.404;11.152;2023-02-13T06:30:09;-2.10;99.90
14769;DHT22;7476;49.404;11.152;2023-02-13T06:32:36;-2.10;99.90
14769;DHT22;7476;49.404;11.152;2023-02-13T06:35:03;-2.10;99.90
14769;DHT22;7476;49.404;11.152;2023-02-13T06:37:31;-2.00;99.90
14769;DHT22;7476;49.404;11.152;2023-02-13T06:39:59;-2.00;99.90
14769;DHT22;7476;49.404;11.152;2023-02-13T06:42:25;-1.80;99.90
14769;DHT22;7476;49.404;11.152;2023-02-13T06:44:52;-1.80;99.90
14769;DHT22;7476;49.404;11.152;2023-02-13T06:47:19;-1.80;99.90
14769;DHT22;7476;49.404;11.152;2023-02-13T06:49:45;-1.80;99.90
14769;DHT22;7476;49.404;11.152;2023-02-13T06:52:12;-1.60;99.90
14769;DHT22;7476;49.404;11.152;2023-02-13T06:54:39;-1.50;99.90
14769;DHT22;7476;49.404;11.152;2023-02-13T06:57:07;-1.40;99.90
14769;DHT22;7476;49.404;11.152;2023-02-13T06:59:34;-1.30;99.90
14769;DHT22;7476;49.404;11.152;2023-02-13T07:02:00;-1.30;99.90
14769;DHT22;7476;49.404;11.152;2023-02-13T07:04:27;-1.20;99.90
14769;DHT22;7476;49.404;11.152;2023-02-13T07:06:54;-1.10;99.90
14769;DHT22;7476;49.404;11.152;2023-02-13T07:09:21;-1.10;99.90
14769;DHT22;7476;49.404;11.152;2023-02-13T07:11:48;-1.00;99.90
14769;DHT22;7476;49.404;11.152;2023-02-13T07:14:16;-0.80;99.90
14769;DHT22;7476;49.404;11.152;2023-02-13T07:16:43;-0.70;99.90
14769;DHT22;7476;49.404;11.152;2023-02-13T07:19:09;-0.60;99.90
14769;DHT22;7476;49.404;11.152;2023-02-13T07:21:36;-0.50;99.90
14769;DHT22;7476;49.404;11.152;2023-02-13T07:24:03;-0.40;99.90
14769;DHT22;7476;49.404;11.152;2023-02-13T07:26:30;-0.40;99.90
14769;DHT22;7476;49.404;11.152;2023-02-13T07:28:56;-0.30;99.90
14769;DHT22;7476;49.404;11.152;2023-02-13T07:31:24;-0.30;99.90
14769;DHT22;7476;49.404;11.152;2023-02-13T07:33:51;-0.20;99.90
14769;DHT22;7476;49.404;11.152;2023-02-13T07:36:18;-0.20;99.90
14769;DHT22;7476;49.404;11.152;2023-02-13T07:38:45;-0.20;99.90
14769;DHT22;7476;49.404;11.152;2023-02-13T07:41:11;-0.10;99.90
14769;DHT22;7476;49.404;11.152;2023-02-13T07:43:38;0.10;99.90
14769;DHT22;7476;49.404;11.152;2023-02-13T07:46:05;0.20;99.90
14769;DHT22;7476;49.404;11.152;2023-02-13T07:48:33;0.30;99.90
14769;DHT22;7476;49.404;11.152;2023-02-13T07:51:01;0.30;99.90
14769;DHT22;7476;49.404;11.152;2023-02-13T07:53:28;0.40;99.90
14769;DHT22;7476;49.404;11.152;2023-02-13T07:55:55;0.30;99.90
14769;DHT22;7476;49.404;11.152;2023-02-13T07:58:22;0.20;99.90
14769;DHT22;7476;49.404;11.152;2023-02-13T08:00:49;0.20;99.90
14769;DHT22;7476;49.404;11.152;2023-02-13T08:03:16;0.40;99.90
14769;DHT22;7476;49.404;11.152;2023-02-13T08:05:46;0.50;99.90
14769;DHT22;7476;49.404;11.152;2023-02-13T08:08:14;0.60;99.90
14769;DHT22;7476;49.404;11.152;2023-02-13T08:10:40;0.60;99.90
14769;DHT22;7476;49.404;11.152;2023-02-13T08:13:25;0.70;99.90
14769;DHT22;7476;49.404;11.152;2023-02-13T08:15:52;0.80;99.90
14769;DHT22;7476;49.404;11.152;2023-02-13T08:18:19;0.80;99.90
14769;DHT22;7476;49.404;11.152;2023-02-13T08:20:47;0.70;99.90
14769;DHT22;7476;49.404;11.152;2023-02-13T08:23:13;0.70;99.90
14769;DHT22;7476;49.404;11.152;2023-02-13T08:25:40;0.90;99.90
14769;DHT22;7476;49.404;11.152;2023-02-13T08:28:07;0.90;99.90
14769;DHT22;7476;49.404;11.152;2023-02-13T08:30:34;1.10;99.90
14769;DHT22;7476;49.404;11.152;2023-02-13T08:33:01;1.30;99.90
14769;DHT22;7476;49.404;11.152;2023-02-13T08:35:27;1.40;99.90
14769;DHT22;7476;49.404;11.152;2023-02-13T08:38:00;1.60;99.90
14769;DHT22;7476;49.404;11.152;2023-02-13T08:40:27;1.80;99.90
14769;DHT22;7476;49.404;11.152;2023-02-13T08:42:59;2.00;99.90
14769;DHT22;7476;49.404;11.152;2023-02-13T08:45:26;2.10;99.90
14769;DHT22;7476;49.404;11.152;2023-02-13T08:47:55;2.50;99.90
14769;DHT22;7476;49.404;11.152;2023-02-13T08:50:22;2.60;99.90
14769;DHT22;7476;49.404;11.152;2023-02-13T08:52:48;2.40;99.90
14769;DHT22;7476;49.404;11.152;2023-02-13T08:55:17;1.60;99.90
14769;DHT22;7476;49.404;11.152;2023-02-13T08:57:43;1.40;99.90
14769;DHT22;7476;49.404;11.152;2023-02-13T09:00:11;1.40;99.90
14769;DHT22;7476;49.404;11.152;2023-02-13T09:02:37;1.40;99.90
14769;DHT22;7476;49.404;11.152;2023-02-13T09:05:05;1.30;99.90
14769;DHT22;7476;49.404;11.152;2023-02-13T09:07:31;1.30;99.90
14769;DHT22;7476;49.404;11.152;2023-02-13T09:09:58;1.60;99.90
14769;DHT22;7476;49.404;11.152;2023-02-13T09:12:26;1.60;99.90
14769;DHT22;7476;49.404;11.152;2023-02-13T09:14:53;1.60;99.90
14769;DHT22;7476;49.404;11.152;2023-02-13T09:17:19;1.90;99.90
14769;DHT22;7476;49.404;11.152;2023-02-13T09:19:46;2.20;99.90
14769;DHT22;7476;49.404;11.152;2023-02-13T09:22:12;2.30;99.90
14769;DHT22;7476;49.404;11.152;2023-02-13T09:24:41;2.30;99.90
14769;DHT22;7476;49.404;11.152;2023-02-13T09:27:08;2.60;99.90
14769;DHT22;7476;49.404;11.152;2023-02-13T09:29:36;3.00;99.90
14769;DHT22;7476;49.404;11.152;2023-02-13T09:32:03;3.00;99.90
14769;DHT22;7476;49.404;11.152;2023-02-13T09:34:30;3.10;99.90
14769;DHT22;7476;49.404;11.152;2023-02-13T09:36:57;2.80;99.90
14769;DHT22;7476;49.404;11.152;2023-02-13T09:39:24;2.90;99.90
14769;DHT22;7476;49.404;11.152;2023-02-13T09:41:52;3.20;99.90
14769;DHT22;7476;49.404;11.152;2023-02-13T09:44:26;3.20;99.90
14769;DHT22;7476;49.404;11.152;2023-02-13T09:47:06;3.60;99.90
14769;DHT22;7476;49.404;11.152;2023-02-13T09:49:39;4.00;99.90
14769;DHT22;7476;49.404;11.152;2023-02-13T09:52:08;3.90;99.90
14769;DHT22;7476;49.404;11.152;2023-02-13T09:54:35;4.40;99.90
14769;DHT22;7476;49.404;11.152;2023-02-13T09:57:07;4.60;99.90
14769;DHT22;7476;49.404;11.152;2023-02-13T09:59:44;4.90;99.90
14769;DHT22;7476;49.404;11.152;2023-02-13T10:02:40;5.40;99.90
14769;DHT22;7476;49.404;11.152;2023-02-13T10:05:17;5.10;99.90
14769;DHT22;7476;49.404;11.152;2023-02-13T10:07:52;5.40;99.90
14769;DHT22;7476;49.404;11.152;2023-02-13T10:10:27;5.80;99.90
14769;DHT22;7476;49.404;11.152;2023-02-13T10:13:02;6.10;99.90
14769;DHT22;7476;49.404;11.152;2023-02-13T10:15:38;6.20;99.90
14769;DHT22;7476;49.404;11.152;2023-02-13T10:18:11;5.90;99.90
14769;DHT22;7476;49.404;11.152;2023-02-13T10:20:42;5.90;99.90
14769;DHT22;7476;49.404;11.152;2023-02-13T10:23:17;6.10;99.90
14769;DHT22;7476;49.404;11.152;2023-02-13T10:25:51;6.30;99.90
14769;DHT22;7476;49.404;11.152;2023-02-13T10:28:33;6.30;99.90
14769;DHT22;7476;49.404;11.152;2023-02-13T10:31:04;6.50;99.90
14769;DHT22;7476;49.404;11.152;2023-02-13T10:33:34;6.90;99.90
14769;DHT22;7476;49.404;11.152;2023-02-13T10:36:10;7.00;99.90
14769;DHT22;7476;49.404;11.152;2023-02-13T10:38:44;7.20;99.90
14769;DHT22;7476;49.404;11.152;2023-02-13T10:41:22;7.20;99.90
14769;DHT22;7476;49.404;11.152;2023-02-13T10:43:59;7.60;99.90
14769;DHT22;7476;49.404;11.152;2023-02-13T10:46:35;8.20;99.90
14769;DHT22;7476;49.404;11.152;2023-02-13T10:49:21;8.70;99.90
14769;DHT22;7476;49.404;11.152;2023-02-13T10:51:54;8.70;99.90
14769;DHT22;7476;49.404;11.152;2023-02-13T10:54:35;8.60;99.90
14769;DHT22;7476;49.404;11.152;2023-02-13T10:57:14;9.20;99.90
14769;DHT22;7476;49.404;11.152;2023-02-13T10:59:58;9.50;99.90
14769;DHT22;7476;49.404;11.152;2023-02-13T11:02:29;10.10;99.90
14769;DHT22;7476;49.404;11.152;2023-02-13T11:05:01;10.40;99.90
14769;DHT22;7476;49.404;11.152;2023-02-13T11:07:28;9.90;99.90
14769;DHT22;7476;49.404;11.152;2023-02-13T11:10:02;10.30;99.90
14769;DHT22;7476;49.404;11.152;2023-02-13T11:12:33;10.80;99.90
14769;DHT22;7476;49.404;11.152;2023-02-13T11:15:01;11.40;99.90
14769;DHT22;7476;49.404;11.152;2023-02-13T11:17:30;11.00;99.90
14769;DHT22;7476;49.404;11.152;2023-02-13T11:20:00;10.30;99.90
14769;DHT22;7476;49.404;11.152;2023-02-13T11:22:32;9.50;99.90
14769;DHT22;7476;49.404;11.152;2023-02-13T11:25:03;9.00;99.90
14769;DHT22;7476;49.404;11.152;2023-02-13T11:27:33;8.80;99.90
14769;DHT22;7476;49.404;11.152;2023-02-13T11:30:03;8.50;99.90
14769;DHT22;7476;49.404;11.152;2023-02-13T11:32:32;8.40;99.90
14769;DHT22;7476;49.404;11.152;2023-02-13T11:35:25;8.80;99.90
14769;DHT22;7476;49.404;11.152;2023-02-13T11:38:11;9.80;99.90
14769;DHT22;7476;49.404;11.152;2023-02-13T11:40:38;10.50;99.90
14769;DHT22;7476;49.404;11.152;2023-02-13T11:43:17;9.80;99.90
14769;DHT22;7476;49.404;11.152;2023-02-13T11:45:45;10.60;99.90
14769;DHT22;7476;49.404;11.152;2023-02-13T11:48:20;11.20;99.90
14769;DHT22;7476;49.404;11.152;2023-02-13T11:50:52;11.00;99.90
14769;DHT22;7476;49.404;11.152;2023-02-13T11:53:22;10.50;99.90
14769;DHT22;7476;49.404;11.152;2023-02-13T11:56:02;10.40;99.90
14769;DHT22;7476;49.404;11.152;2023-02-13T11:58:29;10.10;99.90
14769;DHT22;7476;49.404;11.152;2023-02-13T12:01:22;10.20;99.90
14769;DHT22;7476;49.404;11.152;2023-02-13T12:04:04;10.80;99.90
14769;DHT22;7476;49.404;11.152;2023-02-13T12:06:34;11.20;99.90
14769;DHT22;7476;49.404;11.152;2023-02-13T12:09:09;11.50;99.90
14769;DHT22;7476;49.404;11.152;2023-02-13T12:11:41;11.30;99.90
14769;DHT22;7476;49.404;11.152;2023-02-13T12:14:11;11.80;99.90
14769;DHT22;7476;49.404;11.152;2023-02-13T12:16:41;12.00;99.90
14769;DHT22;7476;49.404;11.152;2023-02-13T12:19:16;13.00;99.90
14769;DHT22;7476;49.404;11.152;2023-02-13T12:21:56;13.80;99.90
14769;DHT22;7476;49.404;11.152;2023-02-13T12:24:44;14.20;99.90
14769;DHT22;7476;49.404;11.152;2023-02-13T12:27:18;15.00;99.90
14769;DHT22;7476;49.404;11.152;2023-02-13T12:30:04;15.80;99.90
14769;DHT22;7476;49.404;11.152;2023-02-13T12:32:41;16.00;99.90
14769;DHT22;7476;49.404;11.152;2023-02-13T12:35:30;16.30;99.90
14769;DHT22;7476;49.404;11.152;2023-02-13T12:38:06;14.60;99.90
14769;DHT22;7476;49.404;11.152;2023-02-13T12:41:01;15.80;99.90
14769;DHT22;7476;49.404;11.152;2023-02-13T12:44:01;13.60;99.90
14769;DHT22;7476;49.404;11.152;2023-02-13T12:46:36;14.60;99.90
14769;DHT22;7476;49.404;11.152;2023-02-13T12:49:19;13.50;99.90
14769;DHT22;7476;49.404;11.152;2023-02-13T12:51:55;14.10;99.90
14769;DHT22;7476;49.404;11.152;2023-02-13T12:54:38;16.20;99.90
14769;DHT22;7476;49.404;11.152;2023-02-13T12:57:20;17.00;99.90
14769;DHT22;7476;49.404;11.152;2023-02-13T13:00:00;16.60;99.90
14769;DHT22;7476;49.404;11.152;2023-02-13T13:02:50;16.60;99.90
14769;DHT22;7476;49.404;11.152;2023-02-13T13:05:27;16.80;99.90
14769;DHT22;7476;49.404;11.152;2023-02-13T13:10:54;16.70;99.90
14769;DHT22;7476;49.404;11.152;2023-02-13T13:13:33;16.20;99.90
14769;DHT22;7476;49.404;11.152;2023-02-13T13:16:08;15.60;99.90
14769;DHT22;7476;49.404;11.152;2023-02-13T13:18:45;17.10;99.90
14769;DHT22;7476;49.404;11.152;2023-02-13T13:21:23;17.70;99.90
14769;DHT22;7476;49.404;11.152;2023-02-13T13:23:55;16.40;99.90
14769;DHT22;7476;49.404;11.152;2023-02-13T13:26:31;16.90;99.90
14769;DHT22;7476;49.404;11.152;2023-02-13T13:29:04;16.40;99.90
14769;DHT22;7476;49.404;11.152;2023-02-13T13:31:34;17.00;99.90
14769;DHT22;7476;49.404;11.152;2023-02-13T13:34:05;15.70;99.90
14769;DHT22;7476;49.404;11.152;2023-02-13T13:36:38;15.60;99.90
14769;DHT22;7476;49.404;11.152;2023-02-13T13:39:16;17.80;99.90
14769;DHT22;7476;49.404;11.152;2023-02-13T13:41:50;19.00;99.90
14769;DHT22;7476;49.404;11.152;2023-02-13T13:44:47;16.00;99.90
14769;DHT22;7476;49.404;11.152;2023-02-13T13:47:21;16.30;99.90
14769;DHT22;7476;49.404;11.152;2023-02-13T13:49:52;16.80;99.90
14769;DHT22;7476;49.404;11.152;2023-02-13T13:52:22;15.40;99.90
14769;DHT22;7476;49.404;11.152;2023-02-13T13:54:49;15.30;99.90
14769;DHT22;7476;49.404;11.152;2023-02-13T13:57:19;16.00;99.90
14769;DHT22;7476;49.404;11.152;2023-02-13T14:00:24;17.90;99.90
14769;DHT22;7476;49.404;11.152;2023-02-13T14:03:23;17.00;99.90
14769;DHT22;7476;49.404;11.152;2023-02-13T14:05:58;18.90;99.90
14769;DHT22;7476;49.404;11.152;2023-02-13T14:11:34;19.30;99.90
14769;DHT22;7476;49.404;11.152;2023-02-13T14:17:50;18.60;99.70
14769;DHT22;7476;49.404;11.152;2023-02-13T14:20:31;18.00;99.50
14769;DHT22;7476;49.404;11.152;2023-02-13T14:23:06;16.10;99.90
14769;DHT22;7476;49.404;11.152;2023-02-13T14:25:34;13.90;99.90
14769;DHT22;7476;49.404;11.152;2023-02-13T14:28:02;15.40;99.90
14769;DHT22;7476;49.404;11.152;2023-02-13T14:30:33;17.00;99.90
14769;DHT22;7476;49.404;11.152;2023-02-13T14:33:03;17.00;99.90
14769;DHT22;7476;49.404;11.152;2023-02-13T14:35:32;17.40;99.90
14769;DHT22;7476;49.404;11.152;2023-02-13T14:38:03;17.60;99.90
14769;DHT22;7476;49.404;11.152;2023-02-13T14:40:47;17.80;99.90
14769;DHT22;7476;49.404;11.152;2023-02-13T14:43:36;18.70;99.90
14769;DHT22;7476;49.404;11.152;2023-02-13T14:46:22;19.80;97.90
14769;DHT22;7476;49.404;11.152;2023-02-13T14:48:55;19.70;97.40
14769;DHT22;7476;49.404;11.152;2023-02-13T14:51:29;19.30;97.90
14769;DHT22;7476;49.404;11.152;2023-02-13T14:54:02;18.20;98.70
14769;DHT22;7476;49.404;11.152;2023-02-13T14:56:30;17.70;99.90
14769;DHT22;7476;49.404;11.152;2023-02-13T14:59:04;17.20;99.90
14769;DHT22;7476;49.404;11.152;2023-02-13T15:01:43;16.70;99.90
14769;DHT22;7476;49.404;11.152;2023-02-13T15:04:14;16.50;99.90
14769;DHT22;7476;49.404;11.152;2023-02-13T15:06:43;16.90;99.90
14769;DHT22;7476;49.404;11.152;2023-02-13T15:09:20;17.70;99.90
14769;DHT22;7476;49.404;11.152;2023-02-13T15:11:49;17.50;99.90
14769;DHT22;7476;49.404;11.152;2023-02-13T15:14:19;16.00;99.90
14769;DHT22;7476;49.404;11.152;2023-02-13T15:16:50;16.80;99.90
14769;DHT22;7476;49.404;11.152;2023-02-13T15:19:19;17.80;99.90
14769;DHT22;7476;49.404;11.152;2023-02-13T15:21:49;18.20;99.60
14769;DHT22;7476;49.404;11.152;2023-02-13T15:24:16;17.60;99.90
14769;DHT22;7476;49.404;11.152;2023-02-13T15:26:49;17.10;99.90
14769;DHT22;7476;49.404;11.152;2023-02-13T15:29:18;16.80;99.90
14769;DHT22;7476;49.404;11.152;2023-02-13T15:31:46;16.40;99.90
14769;DHT22;7476;49.404;11.152;2023-02-13T15:34:21;15.90;99.90
14769;DHT22;7476;49.404;11.152;2023-02-13T15:36:48;16.00;99.90
14769;DHT22;7476;49.404;11.152;2023-02-13T15:39:17;16.40;99.90
14769;DHT22;7476;49.404;11.152;2023-02-13T15:41:46;16.30;99.90
14769;DHT22;7476;49.404;11.152;2023-02-13T15:44:21;16.10;99.90
14769;DHT22;7476;49.404;11.152;2023-02-13T15:46:51;15.30;99.90
14769;DHT22;7476;49.404;11.152;2023-02-13T15:49:20;15.20;99.90
14769;DHT22;7476;49.404;11.152;2023-02-13T15:51:49;15.00;99.90
14769;DHT22;7476;49.404;11.152;2023-02-13T15:54:23;14.70;99.90
14769;DHT22;7476;49.404;11.152;2023-02-13T15:56:51;14.50;99.90
14769;DHT22;7476;49.404;11.152;2023-02-13T15:59:19;14.50;99.90
14769;DHT22;7476;49.404;11.152;2023-02-13T16:01:47;14.10;99.90
14769;DHT22;7476;49.404;11.152;2023-02-13T16:04:16;13.40;99.90
14769;DHT22;7476;49.404;11.152;2023-02-13T16:06:45;12.70;99.90
14769;DHT22;7476;49.404;11.152;2023-02-13T16:09:24;11.60;99.90
14769;DHT22;7476;49.404;11.152;2023-02-13T16:11:55;10.80;99.90
14769;DHT22;7476;49.404;11.152;2023-02-13T16:14:23;9.60;99.90